sensor_id;sensor_type;location;lat;lon;timestamp;pressure;altitude;pressure_sealevel;temperature;humidity
54870;BME280;40756;-37.950;145.008;2022-08-20T00:01:10;101852.40;;;13.80;48.67
54870;BME280;40756;-37.950;145.008;2022-08-20T00:03:41;101853.04;;;13.43;50.03
54870;BME280;40756;-37.950;145.008;2022-08-20T00:06:13;101858.28;;;13.22;49.62
54870;BME280;40756;-37.950;145.008;2022-08-20T00:08:43;101864.53;;;13.66;49.58
54870;BME280;40756;-37.950;145.008;2022-08-20T00:11:19;101865.33;;;13.57;49.82
54870;BME280;40756;-37.950;145.008;2022-08-20T00:13:52;101866.88;;;13.67;50.13
54870;BME280;40756;-37.950;145.008;2022-08-20T00:16:24;101869.47;;;13.98;50.32
54870;BME280;40756;-37.950;145.008;2022-08-20T00:18:54;101874.13;;;13.32;51.75
54870;BME280;40756;-37.950;145.008;2022-08-20T00:21:24;101879.39;;;12.57;51.06
54870;BME280;40756;-37.950;145.008;2022-08-20T00:23:55;101881.27;;;13.06;50.71
54870;BME280;40756;-37.950;145.008;2022-08-20T00:26:25;101882.17;;;13.16;50.14
54870;BME280;40756;-37.950;145.008;2022-08-20T00:28:55;101887.55;;;13.08;49.94
54870;BME280;40756;-37.950;145.008;2022-08-20T00:31:26;101894.57;;;12.81;50.18
54870;BME280;40756;-37.950;145.008;2022-08-20T00:33:56;101900.89;;;12.76;51.00
54870;BME280;40756;-37.950;145.008;2022-08-20T00:36:25;101898.07;;;12.90;50.16
54870;BME280;40756;-37.950;145.008;2022-08-20T00:38:55;101900.89;;;12.90;48.91
54870;BME280;40756;-37.950;145.008;2022-08-20T00:41:26;101906.51;;;12.91;49.25
54870;BME280;40756;-37.950;145.008;2022-08-20T00:44:09;101907.02;;;13.20;48.56
54870;BME280;40756;-37.950;145.008;2022-08-20T00:46:39;101911.43;;;12.69;48.93
54870;BME280;40756;-37.950;145.008;2022-08-20T00:49:18;101913.53;;;13.06;48.70
54870;BME280;40756;-37.950;145.008;2022-08-20T00:51:57;101916.09;;;13.45;48.17
54870;BME280;40756;-37.950;145.008;2022-08-20T00:54:35;101921.60;;;13.54;46.61
54870;BME280;40756;-37.950;145.008;2022-08-20T00:57:09;101919.07;;;14.03;45.88
54870;BME280;40756;-37.950;145.008;2022-08-20T00:59:42;101929.57;;;13.70;46.24
54870;BME280;40756;-37.950;145.008;2022-08-20T01:02:14;101932.39;;;13.96;46.14
54870;BME280;40756;-37.950;145.008;2022-08-20T01:04:45;101939.55;;;13.59;45.86
54870;BME280;40756;-37.950;145.008;2022-08-20T01:07:15;101947.97;;;13.81;46.68
54870;BME280;40756;-37.950;145.008;2022-08-20T01:09:44;101950.78;;;12.79;46.74
54870;BME280;40756;-37.950;145.008;2022-08-20T01:12:15;101959.76;;;13.47;47.18
54870;BME280;40756;-37.950;145.008;2022-08-20T01:14:46;101955.97;;;14.05;46.44
54870;BME280;40756;-37.950;145.008;2022-08-20T01:17:23;101958.18;;;13.41;45.33
54870;BME280;40756;-37.950;145.008;2022-08-20T01:19:56;101957.27;;;14.06;44.14
54870;BME280;40756;-37.950;145.008;2022-08-20T01:22:34;101960.79;;;13.79;43.40
54870;BME280;40756;-37.950;145.008;2022-08-20T01:25:11;101962.98;;;14.17;44.16
54870;BME280;40756;-37.950;145.008;2022-08-20T01:27:44;101964.89;;;14.21;43.59
54870;BME280;40756;-37.950;145.008;2022-08-20T01:30:15;101963.87;;;14.18;42.82
54870;BME280;40756;-37.950;145.008;2022-08-20T01:32:44;101972.39;;;13.43;43.19
54870;BME280;40756;-37.950;145.008;2022-08-20T01:35:19;101965.84;;;13.96;43.03
54870;BME280;40756;-37.950;145.008;2022-08-20T01:37:49;101965.79;;;14.37;42.83
54870;BME280;40756;-37.950;145.008;2022-08-20T01:40:28;101966.60;;;14.23;41.73
54870;BME280;40756;-37.950;145.008;2022-08-20T01:43:04;101964.11;;;14.38;41.30
54870;BME280;40756;-37.950;145.008;2022-08-20T01:45:34;101965.56;;;14.34;41.57
54870;BME280;40756;-37.950;145.008;2022-08-20T01:48:04;101966.17;;;13.87;42.29
54870;BME280;40756;-37.950;145.008;2022-08-20T01:50:35;101965.18;;;14.07;41.14
54870;BME280;40756;-37.950;145.008;2022-08-20T01:53:13;101969.10;;;13.91;40.01
54870;BME280;40756;-37.950;145.008;2022-08-20T01:55:45;101965.27;;;14.00;40.36
54870;BME280;40756;-37.950;145.008;2022-08-20T01:58:14;101960.33;;;14.30;39.99
54870;BME280;40756;-37.950;145.008;2022-08-20T02:00:44;101962.77;;;14.53;38.31
54870;BME280;40756;-37.950;145.008;2022-08-20T02:03:13;101964.85;;;14.58;38.02
54870;BME280;40756;-37.950;145.008;2022-08-20T02:05:43;101966.47;;;14.51;38.41
54870;BME280;40756;-37.950;145.008;2022-08-20T02:08:13;101967.51;;;14.69;39.04
54870;BME280;40756;-37.950;145.008;2022-08-20T02:10:43;101970.72;;;14.80;38.17
54870;BME280;40756;-37.950;145.008;2022-08-20T02:13:13;101969.36;;;14.67;38.23
54870;BME280;40756;-37.950;145.008;2022-08-20T02:15:43;101966.53;;;14.92;37.74
54870;BME280;40756;-37.950;145.008;2022-08-20T02:18:16;101968.39;;;14.73;37.05
54870;BME280;40756;-37.950;145.008;2022-08-20T02:20:46;101968.33;;;14.70;36.92
54870;BME280;40756;-37.950;145.008;2022-08-20T02:23:17;101972.43;;;14.26;36.56
54870;BME280;40756;-37.950;145.008;2022-08-20T02:25:48;101971.82;;;14.09;37.27
54870;BME280;40756;-37.950;145.008;2022-08-20T02:28:19;101967.43;;;14.44;38.01
54870;BME280;40756;-37.950;145.008;2022-08-20T02:30:51;101971.24;;;15.40;36.53
54870;BME280;40756;-37.950;145.008;2022-08-20T02:33:22;101968.59;;;14.83;35.90
54870;BME280;40756;-37.950;145.008;2022-08-20T02:35:55;101968.39;;;14.42;36.02
54870;BME280;40756;-37.950;145.008;2022-08-20T02:38:25;101962.83;;;15.51;36.07
54870;BME280;40756;-37.950;145.008;2022-08-20T02:40:55;101966.78;;;16.24;34.60
54870;BME280;40756;-37.950;145.008;2022-08-20T02:43:24;101966.19;;;16.36;33.97
54870;BME280;40756;-37.950;145.008;2022-08-20T02:45:54;101968.09;;;16.27;33.99
54870;BME280;40756;-37.950;145.008;2022-08-20T02:48:24;101972.28;;;15.88;34.56
54870;BME280;40756;-37.950;145.008;2022-08-20T02:50:57;101978.58;;;15.76;34.88
54870;BME280;40756;-37.950;145.008;2022-08-20T02:53:32;101978.08;;;16.28;35.13
54870;BME280;40756;-37.950;145.008;2022-08-20T02:56:02;101978.05;;;15.49;35.10
54870;BME280;40756;-37.950;145.008;2022-08-20T02:58:32;101978.10;;;15.80;34.23
54870;BME280;40756;-37.950;145.008;2022-08-20T03:01:02;101978.15;;;16.59;33.77
54870;BME280;40756;-37.950;145.008;2022-08-20T03:03:32;101980.19;;;16.63;34.02
54870;BME280;40756;-37.950;145.008;2022-08-20T03:06:01;101988.35;;;15.23;34.57
54870;BME280;40756;-37.950;145.008;2022-08-20T03:08:31;101992.18;;;14.96;33.91
54870;BME280;40756;-37.950;145.008;2022-08-20T03:11:01;101990.64;;;15.17;34.18
54870;BME280;40756;-37.950;145.008;2022-08-20T03:13:30;101993.37;;;15.69;34.24
54870;BME280;40756;-37.950;145.008;2022-08-20T03:16:01;101993.97;;;15.26;33.03
54870;BME280;40756;-37.950;145.008;2022-08-20T03:18:35;101998.38;;;15.67;33.89
54870;BME280;40756;-37.950;145.008;2022-08-20T03:21:07;101991.20;;;15.27;34.97
54870;BME280;40756;-37.950;145.008;2022-08-20T03:23:38;101986.60;;;15.65;34.89
54870;BME280;40756;-37.950;145.008;2022-08-20T03:26:10;101988.41;;;15.64;33.85
54870;BME280;40756;-37.950;145.008;2022-08-20T03:28:41;101994.86;;;14.54;34.42
54870;BME280;40756;-37.950;145.008;2022-08-20T03:31:11;101999.55;;;14.67;34.87
54870;BME280;40756;-37.950;145.008;2022-08-20T03:33:42;101998.15;;;14.38;35.42
54870;BME280;40756;-37.950;145.008;2022-08-20T03:36:12;102002.15;;;13.76;37.78
54870;BME280;40756;-37.950;145.008;2022-08-20T03:38:43;102005.72;;;14.98;36.15
54870;BME280;40756;-37.950;145.008;2022-08-20T03:41:13;102006.12;;;14.17;35.21
54870;BME280;40756;-37.950;145.008;2022-08-20T03:43:43;102006.72;;;14.17;36.03
54870;BME280;40756;-37.950;145.008;2022-08-20T03:46:12;102005.75;;;15.11;35.22
54870;BME280;40756;-37.950;145.008;2022-08-20T03:48:42;102000.15;;;15.79;34.24
54870;BME280;40756;-37.950;145.008;2022-08-20T03:51:12;102001.06;;;15.41;34.36
54870;BME280;40756;-37.950;145.008;2022-08-20T03:53:41;101999.12;;;14.99;33.46
54870;BME280;40756;-37.950;145.008;2022-08-20T03:56:11;102002.69;;;16.07;32.46
54870;BME280;40756;-37.950;145.008;2022-08-20T03:58:40;102002.45;;;16.54;33.61
54870;BME280;40756;-37.950;145.008;2022-08-20T04:01:10;102000.15;;;17.10;31.89
54870;BME280;40756;-37.950;145.008;2022-08-20T04:03:40;102007.52;;;17.81;29.71
54870;BME280;40756;-37.950;145.008;2022-08-20T04:06:09;102011.28;;;17.32;30.08
54870;BME280;40756;-37.950;145.008;2022-08-20T04:08:39;102015.25;;;17.63;29.11
54870;BME280;40756;-37.950;145.008;2022-08-20T04:11:09;102016.73;;;16.52;28.90
54870;BME280;40756;-37.950;145.008;2022-08-20T04:13:38;102016.73;;;17.76;28.84
54870;BME280;40756;-37.950;145.008;2022-08-20T04:16:09;102018.83;;;18.02;27.74
54870;BME280;40756;-37.950;145.008;2022-08-20T04:18:38;102016.75;;;17.19;28.49
54870;BME280;40756;-37.950;145.008;2022-08-20T04:21:08;102023.63;;;16.96;28.35
54870;BME280;40756;-37.950;145.008;2022-08-20T04:23:38;102020.56;;;16.78;28.78
54870;BME280;40756;-37.950;145.008;2022-08-20T04:26:07;102024.54;;;17.11;29.56
54870;BME280;40756;-37.950;145.008;2022-08-20T04:28:37;102029.78;;;16.35;29.76
54870;BME280;40756;-37.950;145.008;2022-08-20T04:31:06;102031.98;;;16.63;29.37
54870;BME280;40756;-37.950;145.008;2022-08-20T04:33:36;102037.98;;;15.75;31.00
54870;BME280;40756;-37.950;145.008;2022-08-20T04:36:06;102041.81;;;15.95;30.71
54870;BME280;40756;-37.950;145.008;2022-08-20T04:38:36;102038.29;;;16.76;30.55
54870;BME280;40756;-37.950;145.008;2022-08-20T04:41:05;102034.34;;;16.85;29.97
54870;BME280;40756;-37.950;145.008;2022-08-20T04:43:36;102037.63;;;17.15;30.28
54870;BME280;40756;-37.950;145.008;2022-08-20T04:46:07;102044.86;;;16.76;30.66
54870;BME280;40756;-37.950;145.008;2022-08-20T04:48:37;102046.51;;;16.81;30.68
54870;BME280;40756;-37.950;145.008;2022-08-20T04:51:09;102054.72;;;16.24;31.56
54870;BME280;40756;-37.950;145.008;2022-08-20T04:53:40;102054.14;;;17.35;31.22
54870;BME280;40756;-37.950;145.008;2022-08-20T04:56:10;102061.61;;;15.68;32.83
54870;BME280;40756;-37.950;145.008;2022-08-20T04:58:40;102065.55;;;15.69;32.97
54870;BME280;40756;-37.950;145.008;2022-08-20T05:01:11;102068.82;;;16.24;32.39
54870;BME280;40756;-37.950;145.008;2022-08-20T05:03:42;102075.52;;;16.83;32.58
54870;BME280;40756;-37.950;145.008;2022-08-20T05:06:12;102076.57;;;16.44;32.43
54870;BME280;40756;-37.950;145.008;2022-08-20T05:08:42;102078.01;;;17.04;32.17
54870;BME280;40756;-37.950;145.008;2022-08-20T05:11:13;102077.10;;;15.82;32.82
54870;BME280;40756;-37.950;145.008;2022-08-20T05:13:42;102081.06;;;16.42;33.78
54870;BME280;40756;-37.950;145.008;2022-08-20T05:16:13;102085.18;;;15.53;35.26
54870;BME280;40756;-37.950;145.008;2022-08-20T05:18:43;102084.40;;;16.82;35.17
54870;BME280;40756;-37.950;145.008;2022-08-20T05:21:14;102086.53;;;15.12;36.02
54870;BME280;40756;-37.950;145.008;2022-08-20T05:23:43;102088.41;;;15.56;35.21
54870;BME280;40756;-37.950;145.008;2022-08-20T05:26:13;102089.63;;;15.35;35.48
54870;BME280;40756;-37.950;145.008;2022-08-20T05:28:44;102095.66;;;15.61;35.70
54870;BME280;40756;-37.950;145.008;2022-08-20T05:31:14;102094.57;;;15.82;35.97
54870;BME280;40756;-37.950;145.008;2022-08-20T05:33:43;102099.13;;;15.97;36.31
54870;BME280;40756;-37.950;145.008;2022-08-20T05:36:15;102112.05;;;15.67;36.45
54870;BME280;40756;-37.950;145.008;2022-08-20T05:38:44;102113.78;;;15.25;36.94
54870;BME280;40756;-37.950;145.008;2022-08-20T05:41:14;102117.35;;;15.06;37.13
54870;BME280;40756;-37.950;145.008;2022-08-20T05:43:43;102127.85;;;13.77;39.77
54870;BME280;40756;-37.950;145.008;2022-08-20T05:46:13;102130.44;;;13.48;41.07
54870;BME280;40756;-37.950;145.008;2022-08-20T05:48:43;102127.12;;;14.02;41.75
54870;BME280;40756;-37.950;145.008;2022-08-20T05:51:13;102129.16;;;14.08;41.29
54870;BME280;40756;-37.950;145.008;2022-08-20T05:53:42;102126.53;;;13.96;40.41
54870;BME280;40756;-37.950;145.008;2022-08-20T05:56:12;102125.22;;;13.29;40.83
54870;BME280;40756;-37.950;145.008;2022-08-20T05:58:41;102130.44;;;13.50;40.54
54870;BME280;40756;-37.950;145.008;2022-08-20T06:01:11;102131.88;;;13.32;40.87
54870;BME280;40756;-37.950;145.008;2022-08-20T06:03:41;102136.80;;;13.62;40.74
54870;BME280;40756;-37.950;145.008;2022-08-20T06:06:10;102142.03;;;13.02;40.59
54870;BME280;40756;-37.950;145.008;2022-08-20T06:08:41;102138.55;;;14.20;39.04
54870;BME280;40756;-37.950;145.008;2022-08-20T06:11:11;102139.28;;;15.05;36.18
54870;BME280;40756;-37.950;145.008;2022-08-20T06:13:40;102137.56;;;14.69;33.54
54870;BME280;40756;-37.950;145.008;2022-08-20T06:16:10;102134.99;;;16.04;31.67
54870;BME280;40756;-37.950;145.008;2022-08-20T06:18:40;102138.62;;;15.94;31.54
54870;BME280;40756;-37.950;145.008;2022-08-20T06:21:10;102141.87;;;15.71;30.41
54870;BME280;40756;-37.950;145.008;2022-08-20T06:23:39;102143.34;;;16.16;31.76
54870;BME280;40756;-37.950;145.008;2022-08-20T06:26:09;102144.77;;;15.53;32.30
54870;BME280;40756;-37.950;145.008;2022-08-20T06:28:39;102150.89;;;15.93;33.70
54870;BME280;40756;-37.950;145.008;2022-08-20T06:31:08;102158.34;;;15.36;36.35
54870;BME280;40756;-37.950;145.008;2022-08-20T06:33:38;102161.93;;;14.46;39.06
54870;BME280;40756;-37.950;145.008;2022-08-20T06:36:08;102158.52;;;14.45;40.34
54870;BME280;40756;-37.950;145.008;2022-08-20T06:38:38;102159.74;;;14.19;40.62
54870;BME280;40756;-37.950;145.008;2022-08-20T06:41:08;102158.06;;;14.48;40.01
54870;BME280;40756;-37.950;145.008;2022-08-20T06:43:37;102163.85;;;14.10;39.88
54870;BME280;40756;-37.950;145.008;2022-08-20T06:46:07;102165.24;;;14.12;39.23
54870;BME280;40756;-37.950;145.008;2022-08-20T06:48:37;102170.68;;;13.83;39.92
54870;BME280;40756;-37.950;145.008;2022-08-20T06:51:06;102170.25;;;13.36;38.53
54870;BME280;40756;-37.950;145.008;2022-08-20T06:53:36;102176.54;;;13.90;38.78
54870;BME280;40756;-37.950;145.008;2022-08-20T06:56:06;102179.58;;;13.70;39.40
54870;BME280;40756;-37.950;145.008;2022-08-20T06:58:37;102183.45;;;12.71;38.96
54870;BME280;40756;-37.950;145.008;2022-08-20T07:01:08;102181.98;;;13.22;38.71
54870;BME280;40756;-37.950;145.008;2022-08-20T07:03:39;102188.21;;;13.10;37.78
54870;BME280;40756;-37.950;145.008;2022-08-20T07:06:09;102185.71;;;13.37;38.18
54870;BME280;40756;-37.950;145.008;2022-08-20T07:08:39;102189.07;;;13.40;37.84
54870;BME280;40756;-37.950;145.008;2022-08-20T07:11:09;102190.38;;;12.92;37.43
54870;BME280;40756;-37.950;145.008;2022-08-20T07:13:39;102196.02;;;13.04;37.23
54870;BME280;40756;-37.950;145.008;2022-08-20T07:16:09;102200.38;;;13.43;37.81
54870;BME280;40756;-37.950;145.008;2022-08-20T07:18:39;102201.13;;;13.10;37.55
54870;BME280;40756;-37.950;145.008;2022-08-20T07:21:09;102202.95;;;13.03;37.74
54870;BME280;40756;-37.950;145.008;2022-08-20T07:23:38;102211.52;;;12.69;38.14
54870;BME280;40756;-37.950;145.008;2022-08-20T07:26:08;102216.60;;;12.61;38.42
54870;BME280;40756;-37.950;145.008;2022-08-20T07:28:38;102223.18;;;12.74;39.13
54870;BME280;40756;-37.950;145.008;2022-08-20T07:31:08;102224.44;;;12.49;40.04
54870;BME280;40756;-37.950;145.008;2022-08-20T07:33:38;102224.68;;;12.75;40.67
54870;BME280;40756;-37.950;145.008;2022-08-20T07:36:09;102230.41;;;12.42;40.93
54870;BME280;40756;-37.950;145.008;2022-08-20T07:38:40;102240.05;;;12.01;42.04
54870;BME280;40756;-37.950;145.008;2022-08-20T07:41:11;102244.73;;;11.86;42.98
54870;BME280;40756;-37.950;145.008;2022-08-20T07:43:42;102242.26;;;12.56;42.95
54870;BME280;40756;-37.950;145.008;2022-08-20T07:46:13;102244.57;;;11.85;42.95
54870;BME280;40756;-37.950;145.008;2022-08-20T07:48:48;102248.84;;;12.57;43.42
54870;BME280;40756;-37.950;145.008;2022-08-20T07:51:20;102255.61;;;12.30;43.43
54870;BME280;40756;-37.950;145.008;2022-08-20T07:53:51;102263.71;;;12.42;43.58
54870;BME280;40756;-37.950;145.008;2022-08-20T07:56:22;102268.66;;;12.42;43.57
54870;BME280;40756;-37.950;145.008;2022-08-20T07:58:53;102273.02;;;12.20;43.78
54870;BME280;40756;-37.950;145.008;2022-08-20T08:01:25;102278.43;;;12.38;44.08
54870;BME280;40756;-37.950;145.008;2022-08-20T08:03:54;102281.00;;;11.91;44.48
54870;BME280;40756;-37.950;145.008;2022-08-20T08:06:25;102286.31;;;12.28;44.11
54870;BME280;40756;-37.950;145.008;2022-08-20T08:08:55;102290.91;;;12.20;44.51
54870;BME280;40756;-37.950;145.008;2022-08-20T08:11:25;102293.99;;;12.44;44.40
54870;BME280;40756;-37.950;145.008;2022-08-20T08:13:55;102300.72;;;12.50;44.50
54870;BME280;40756;-37.950;145.008;2022-08-20T08:16:24;102297.20;;;11.99;45.06
54870;BME280;40756;-37.950;145.008;2022-08-20T08:18:56;102301.56;;;11.88;45.61
54870;BME280;40756;-37.950;145.008;2022-08-20T08:21:25;102300.19;;;12.23;45.63
54870;BME280;40756;-37.950;145.008;2022-08-20T08:23:56;102305.24;;;12.07;45.86
54870;BME280;40756;-37.950;145.008;2022-08-20T08:26:25;102300.70;;;12.20;45.88
54870;BME280;40756;-37.950;145.008;2022-08-20T08:28:54;102301.51;;;12.17;45.99
54870;BME280;40756;-37.950;145.008;2022-08-20T08:31:24;102304.12;;;12.10;46.16
54870;BME280;40756;-37.950;145.008;2022-08-20T08:33:54;102303.52;;;12.05;46.33
54870;BME280;40756;-37.950;145.008;2022-08-20T08:36:23;102306.72;;;12.12;46.25
54870;BME280;40756;-37.950;145.008;2022-08-20T08:38:54;102308.21;;;11.93;46.41
54870;BME280;40756;-37.950;145.008;2022-08-20T08:41:28;102304.38;;;11.82;46.33
54870;BME280;40756;-37.950;145.008;2022-08-20T08:44:03;102304.22;;;11.84;46.39
54870;BME280;40756;-37.950;145.008;2022-08-20T08:46:37;102308.95;;;11.77;46.36
54870;BME280;40756;-37.950;145.008;2022-08-20T08:49:10;102315.70;;;11.97;46.34
54870;BME280;40756;-37.950;145.008;2022-08-20T08:51:50;102318.15;;;11.74;46.16
54870;BME280;40756;-37.950;145.008;2022-08-20T08:54:23;102325.97;;;11.87;46.65
54870;BME280;40756;-37.950;145.008;2022-08-20T08:56:54;102328.72;;;11.78;46.12
54870;BME280;40756;-37.950;145.008;2022-08-20T08:59:24;102330.49;;;11.74;46.22
54870;BME280;40756;-37.950;145.008;2022-08-20T09:01:58;102336.05;;;11.82;46.45
54870;BME280;40756;-37.950;145.008;2022-08-20T09:04:31;102343.44;;;11.60;46.79
54870;BME280;40756;-37.950;145.008;2022-08-20T09:07:04;102345.12;;;11.24;47.12
54870;BME280;40756;-37.950;145.008;2022-08-20T09:09:39;102347.48;;;11.37;47.17
54870;BME280;40756;-37.950;145.008;2022-08-20T09:12:13;102356.12;;;11.04;47.56
54870;BME280;40756;-37.950;145.008;2022-08-20T09:14:42;102357.54;;;11.09;47.94
54870;BME280;40756;-37.950;145.008;2022-08-20T09:17:12;102357.23;;;11.19;48.21
54870;BME280;40756;-37.950;145.008;2022-08-20T09:19:43;102362.69;;;11.07;48.23
54870;BME280;40756;-37.950;145.008;2022-08-20T09:22:15;102361.84;;;10.64;48.24
54870;BME280;40756;-37.950;145.008;2022-08-20T09:24:46;102362.27;;;10.84;48.45
54870;BME280;40756;-37.950;145.008;2022-08-20T09:27:15;102357.77;;;10.61;48.78
54870;BME280;40756;-37.950;145.008;2022-08-20T09:29:45;102356.64;;;10.50;49.11
54870;BME280;40756;-37.950;145.008;2022-08-20T09:32:18;102356.74;;;10.39;49.02
54870;BME280;40756;-37.950;145.008;2022-08-20T09:34:49;102358.01;;;10.23;49.29
54870;BME280;40756;-37.950;145.008;2022-08-20T09:37:19;102359.36;;;10.26;49.22
54870;BME280;40756;-37.950;145.008;2022-08-20T09:39:49;102361.18;;;10.37;49.19
54870;BME280;40756;-37.950;145.008;2022-08-20T09:42:20;102367.19;;;10.27;49.25
54870;BME280;40756;-37.950;145.008;2022-08-20T09:44:51;102365.45;;;10.16;49.47
54870;BME280;40756;-37.950;145.008;2022-08-20T09:47:20;102364.66;;;10.25;49.84
54870;BME280;40756;-37.950;145.008;2022-08-20T09:49:50;102368.84;;;10.35;49.92
54870;BME280;40756;-37.950;145.008;2022-08-20T09:52:23;102372.13;;;10.18;49.85
54870;BME280;40756;-37.950;145.008;2022-08-20T09:54:56;102371.39;;;10.10;49.72
54870;BME280;40756;-37.950;145.008;2022-08-20T09:57:27;102372.84;;;10.52;49.74
54870;BME280;40756;-37.950;145.008;2022-08-20T10:00:01;102373.97;;;10.58;49.91
54870;BME280;40756;-37.950;145.008;2022-08-20T10:02:32;102373.50;;;10.12;50.24
54870;BME280;40756;-37.950;145.008;2022-08-20T10:05:02;102375.15;;;10.10;50.30
54870;BME280;40756;-37.950;145.008;2022-08-20T10:07:32;102380.22;;;10.06;49.96
54870;BME280;40756;-37.950;145.008;2022-08-20T10:10:02;102382.05;;;10.29;49.87
54870;BME280;40756;-37.950;145.008;2022-08-20T10:12:32;102383.20;;;9.93;50.11
54870;BME280;40756;-37.950;145.008;2022-08-20T10:15:02;102381.21;;;9.96;50.35
54870;BME280;40756;-37.950;145.008;2022-08-20T10:17:32;102379.94;;;9.75;50.75
54870;BME280;40756;-37.950;145.008;2022-08-20T10:20:02;102379.77;;;9.86;50.72
54870;BME280;40756;-37.950;145.008;2022-08-20T10:22:31;102375.67;;;10.07;50.74
54870;BME280;40756;-37.950;145.008;2022-08-20T10:25:01;102375.59;;;9.97;50.49
54870;BME280;40756;-37.950;145.008;2022-08-20T10:27:31;102374.10;;;10.17;50.80
54870;BME280;40756;-37.950;145.008;2022-08-20T10:30:01;102377.62;;;9.94;50.99
54870;BME280;40756;-37.950;145.008;2022-08-20T10:32:31;102381.34;;;9.74;51.00
54870;BME280;40756;-37.950;145.008;2022-08-20T10:35:01;102382.18;;;9.82;50.81
54870;BME280;40756;-37.950;145.008;2022-08-20T10:37:30;102380.08;;;10.15;50.95
54870;BME280;40756;-37.950;145.008;2022-08-20T10:40:00;102379.32;;;10.49;50.79
54870;BME280;40756;-37.950;145.008;2022-08-20T10:42:30;102376.99;;;10.33;50.77
54870;BME280;40756;-37.950;145.008;2022-08-20T10:45:00;102378.37;;;10.43;50.69
54870;BME280;40756;-37.950;145.008;2022-08-20T10:47:31;102379.26;;;10.47;50.74
54870;BME280;40756;-37.950;145.008;2022-08-20T10:50:04;102383.14;;;10.31;50.90
54870;BME280;40756;-37.950;145.008;2022-08-20T10:52:35;102381.38;;;10.46;50.68
54870;BME280;40756;-37.950;145.008;2022-08-20T10:55:05;102384.09;;;10.54;50.50
54870;BME280;40756;-37.950;145.008;2022-08-20T10:57:36;102383.01;;;10.63;50.63
54870;BME280;40756;-37.950;145.008;2022-08-20T11:00:07;102387.41;;;10.65;50.15
54870;BME280;40756;-37.950;145.008;2022-08-20T11:02:37;102388.31;;;10.72;50.12
54870;BME280;40756;-37.950;145.008;2022-08-20T11:05:07;102384.53;;;10.79;49.83
54870;BME280;40756;-37.950;145.008;2022-08-20T11:07:40;102384.81;;;10.41;49.72
54870;BME280;40756;-37.950;145.008;2022-08-20T11:10:11;102384.33;;;10.62;49.24
54870;BME280;40756;-37.950;145.008;2022-08-20T11:12:41;102385.45;;;10.61;49.53
54870;BME280;40756;-37.950;145.008;2022-08-20T11:15:11;102382.38;;;10.85;49.29
54870;BME280;40756;-37.950;145.008;2022-08-20T11:17:42;102383.89;;;10.52;49.25
54870;BME280;40756;-37.950;145.008;2022-08-20T11:20:16;102385.05;;;10.43;49.29
54870;BME280;40756;-37.950;145.008;2022-08-20T11:22:46;102384.83;;;10.34;49.93
54870;BME280;40756;-37.950;145.008;2022-08-20T11:25:16;102385.80;;;10.15;49.98
54870;BME280;40756;-37.950;145.008;2022-08-20T11:27:48;102383.13;;;10.36;50.31
54870;BME280;40756;-37.950;145.008;2022-08-20T11:30:22;102382.01;;;10.20;50.34
54870;BME280;40756;-37.950;145.008;2022-08-20T11:32:52;102379.49;;;10.16;50.12
54870;BME280;40756;-37.950;145.008;2022-08-20T11:35:23;102381.10;;;10.34;50.34
54870;BME280;40756;-37.950;145.008;2022-08-20T11:37:53;102383.82;;;10.05;50.49
54870;BME280;40756;-37.950;145.008;2022-08-20T11:40:24;102383.83;;;10.24;50.44
54870;BME280;40756;-37.950;145.008;2022-08-20T11:42:55;102382.91;;;9.71;50.70
54870;BME280;40756;-37.950;145.008;2022-08-20T11:45:24;102382.75;;;9.67;51.03
54870;BME280;40756;-37.950;145.008;2022-08-20T11:47:54;102382.70;;;9.78;51.13
54870;BME280;40756;-37.950;145.008;2022-08-20T11:50:24;102382.72;;;9.61;51.61
54870;BME280;40756;-37.950;145.008;2022-08-20T11:52:53;102379.93;;;9.72;51.75
54870;BME280;40756;-37.950;145.008;2022-08-20T11:55:23;102379.21;;;9.46;52.00
54870;BME280;40756;-37.950;145.008;2022-08-20T11:57:53;102380.75;;;9.57;52.31
54870;BME280;40756;-37.950;145.008;2022-08-20T12:00:23;102383.33;;;9.49;52.39
54870;BME280;40756;-37.950;145.008;2022-08-20T12:02:52;102382.96;;;9.19;52.76
54870;BME280;40756;-37.950;145.008;2022-08-20T12:05:22;102378.23;;;9.05;52.79
54870;BME280;40756;-37.950;145.008;2022-08-20T12:07:51;102375.95;;;9.00;52.33
54870;BME280;40756;-37.950;145.008;2022-08-20T12:10:21;102374.60;;;8.94;52.65
54870;BME280;40756;-37.950;145.008;2022-08-20T12:12:50;102369.57;;;8.83;52.31
54870;BME280;40756;-37.950;145.008;2022-08-20T12:15:20;102370.51;;;9.05;52.32
54870;BME280;40756;-37.950;145.008;2022-08-20T12:17:49;102376.71;;;9.10;52.54
54870;BME280;40756;-37.950;145.008;2022-08-20T12:20:20;102377.25;;;9.02;52.55
54870;BME280;40756;-37.950;145.008;2022-08-20T12:22:50;102382.39;;;8.89;52.82
54870;BME280;40756;-37.950;145.008;2022-08-20T12:25:20;102383.24;;;8.61;52.94
54870;BME280;40756;-37.950;145.008;2022-08-20T12:27:49;102383.43;;;8.82;52.94
54870;BME280;40756;-37.950;145.008;2022-08-20T12:30:22;102386.04;;;8.77;53.13
54870;BME280;40756;-37.950;145.008;2022-08-20T12:32:52;102395.24;;;8.72;53.02
54870;BME280;40756;-37.950;145.008;2022-08-20T12:35:22;102397.81;;;8.43;53.19
54870;BME280;40756;-37.950;145.008;2022-08-20T12:37:53;102399.02;;;8.67;53.23